sensor_id;sensor_type;location;lat;lon;timestamp;P1;durP1;ratioP1;P2;durP2;ratioP2
2289;SDS011;1153;47.986;7.898;2022-12-18T00:01:56;34.30;;;11.90;;
2289;SDS011;1153;47.986;7.898;2022-12-18T00:04:22;40.23;;;12.43;;
2289;SDS011;1153;47.986;7.898;2022-12-18T00:06:47;34.23;;;12.83;;
2289;SDS011;1153;47.986;7.898;2022-12-18T00:09:12;29.73;;;12.10;;
2289;SDS011;1153;47.986;7.898;2022-12-18T00:11:38;28.47;;;12.60;;
2289;SDS011;1153;47.986;7.898;2022-12-18T00:14:03;32.90;;;12.70;;
2289;SDS011;1153;47.986;7.898;2022-12-18T00:16:29;32.57;;;14.27;;
2289;SDS011;1153;47.986;7.898;2022-12-18T00:18:56;31.83;;;13.73;;
2289;SDS011;1153;47.986;7.898;2022-12-18T00:21:21;31.10;;;14.37;;
2289;SDS011;1153;47.986;7.898;2022-12-18T00:23:47;40.27;;;16.23;;
2289;SDS011;1153;47.986;7.898;2022-12-18T00:26:20;36.70;;;15.27;;
2289;SDS011;1153;47.986;7.898;2022-12-18T00:28:46;33.57;;;14.40;;
2289;SDS011;1153;47.986;7.898;2022-12-18T00:31:21;29.93;;;12.87;;
2289;SDS011;1153;47.986;7.898;2022-12-18T00:33:47;36.80;;;14.70;;
2289;SDS011;1153;47.986;7.898;2022-12-18T00:36:13;40.13;;;14.70;;
2289;SDS011;1153;47.986;7.898;2022-12-18T00:38:39;35.87;;;15.20;;
2289;SDS011;1153;47.986;7.898;2022-12-18T00:41:05;29.43;;;11.57;;
2289;SDS011;1153;47.986;7.898;2022-12-18T00:43:33;33.10;;;13.63;;
2289;SDS011;1153;47.986;7.898;2022-12-18T00:45:59;41.30;;;14.23;;
2289;SDS011;1153;47.986;7.898;2022-12-18T00:48:24;31.13;;;13.97;;
2289;SDS011;1153;47.986;7.898;2022-12-18T00:50:49;24.50;;;11.77;;
2289;SDS011;1153;47.986;7.898;2022-12-18T00:53:15;34.70;;;14.00;;
2289;SDS011;1153;47.986;7.898;2022-12-18T00:55:40;25.43;;;12.90;;
2289;SDS011;1153;47.986;7.898;2022-12-18T00:58:05;29.00;;;12.60;;
2289;SDS011;1153;47.986;7.898;2022-12-18T01:00:30;28.40;;;11.97;;
2289;SDS011;1153;47.986;7.898;2022-12-18T01:02:56;37.43;;;13.77;;
2289;SDS011;1153;47.986;7.898;2022-12-18T01:05:21;26.50;;;12.93;;
2289;SDS011;1153;47.986;7.898;2022-12-18T01:07:46;31.17;;;11.80;;
2289;SDS011;1153;47.986;7.898;2022-12-18T01:10:12;26.83;;;12.73;;
2289;SDS011;1153;47.986;7.898;2022-12-18T01:12:37;28.60;;;12.40;;
2289;SDS011;1153;47.986;7.898;2022-12-18T01:15:03;30.37;;;12.20;;
2289;SDS011;1153;47.986;7.898;2022-12-18T01:17:29;40.17;;;13.07;;
2289;SDS011;1153;47.986;7.898;2022-12-18T01:19:54;35.77;;;14.90;;
2289;SDS011;1153;47.986;7.898;2022-12-18T01:22:20;35.63;;;14.80;;
2289;SDS011;1153;47.986;7.898;2022-12-18T01:24:45;29.27;;;12.60;;
2289;SDS011;1153;47.986;7.898;2022-12-18T01:27:10;28.63;;;12.73;;
2289;SDS011;1153;47.986;7.898;2022-12-18T01:29:35;28.23;;;12.90;;
2289;SDS011;1153;47.986;7.898;2022-12-18T01:32:00;37.03;;;11.83;;
2289;SDS011;1153;47.986;7.898;2022-12-18T01:34:26;32.33;;;11.90;;
2289;SDS011;1153;47.986;7.898;2022-12-18T01:36:51;27.70;;;12.60;;
2289;SDS011;1153;47.986;7.898;2022-12-18T01:39:17;25.17;;;13.00;;
2289;SDS011;1153;47.986;7.898;2022-12-18T01:41:43;30.27;;;12.83;;
2289;SDS011;1153;47.986;7.898;2022-12-18T01:45:27;29.60;;;12.97;;
2289;SDS011;1153;47.986;7.898;2022-12-18T01:49:46;29.63;;;13.40;;
2289;SDS011;1153;47.986;7.898;2022-12-18T01:52:11;36.23;;;13.13;;
2289;SDS011;1153;47.986;7.898;2022-12-18T01:54:36;27.90;;;13.00;;
2289;SDS011;1153;47.986;7.898;2022-12-18T01:57:02;32.30;;;11.23;;
2289;SDS011;1153;47.986;7.898;2022-12-18T01:59:27;30.63;;;14.27;;
2289;SDS011;1153;47.986;7.898;2022-12-18T02:01:52;30.30;;;13.60;;
2289;SDS011;1153;47.986;7.898;2022-12-18T02:04:21;32.40;;;13.97;;
2289;SDS011;1153;47.986;7.898;2022-12-18T02:06:46;23.67;;;12.90;;
2289;SDS011;1153;47.986;7.898;2022-12-18T02:09:19;26.33;;;11.70;;
2289;SDS011;1153;47.986;7.898;2022-12-18T02:11:49;28.73;;;11.83;;
2289;SDS011;1153;47.986;7.898;2022-12-18T02:14:38;31.37;;;13.87;;
2289;SDS011;1153;47.986;7.898;2022-12-18T02:17:05;23.97;;;11.60;;
2289;SDS011;1153;47.986;7.898;2022-12-18T02:27:21;23.40;;;11.47;;
2289;SDS011;1153;47.986;7.898;2022-12-18T02:29:48;29.83;;;11.60;;
2289;SDS011;1153;47.986;7.898;2022-12-18T02:32:16;24.80;;;9.90;;
2289;SDS011;1153;47.986;7.898;2022-12-18T02:34:42;25.03;;;12.97;;
2289;SDS011;1153;47.986;7.898;2022-12-18T02:37:09;20.80;;;10.87;;
2289;SDS011;1153;47.986;7.898;2022-12-18T02:39:36;26.00;;;11.63;;
2289;SDS011;1153;47.986;7.898;2022-12-18T02:42:02;28.93;;;13.80;;
2289;SDS011;1153;47.986;7.898;2022-12-18T02:44:32;20.10;;;12.13;;
2289;SDS011;1153;47.986;7.898;2022-12-18T02:46:58;36.40;;;12.90;;
2289;SDS011;1153;47.986;7.898;2022-12-18T02:51:52;24.00;;;12.77;;
2289;SDS011;1153;47.986;7.898;2022-12-18T02:54:24;27.97;;;12.53;;
2289;SDS011;1153;47.986;7.898;2022-12-18T02:56:51;27.30;;;11.90;;
2289;SDS011;1153;47.986;7.898;2022-12-18T02:59:19;28.87;;;11.07;;
2289;SDS011;1153;47.986;7.898;2022-12-18T03:01:54;36.70;;;15.27;;
2289;SDS011;1153;47.986;7.898;2022-12-18T03:04:22;19.97;;;10.53;;
2289;SDS011;1153;47.986;7.898;2022-12-18T03:06:50;28.10;;;11.57;;
2289;SDS011;1153;47.986;7.898;2022-12-18T03:09:21;21.60;;;11.33;;
2289;SDS011;1153;47.986;7.898;2022-12-18T03:11:49;23.93;;;12.67;;
2289;SDS011;1153;47.986;7.898;2022-12-18T03:14:36;24.67;;;11.00;;
2289;SDS011;1153;47.986;7.898;2022-12-18T03:17:04;28.97;;;11.00;;
2289;SDS011;1153;47.986;7.898;2022-12-18T03:19:31;26.57;;;12.33;;
2289;SDS011;1153;47.986;7.898;2022-12-18T03:21:57;22.83;;;12.50;;
2289;SDS011;1153;47.986;7.898;2022-12-18T03:24:23;30.23;;;11.07;;
2289;SDS011;1153;47.986;7.898;2022-12-18T03:26:50;24.53;;;11.97;;
2289;SDS011;1153;47.986;7.898;2022-12-18T03:31:53;26.83;;;12.40;;
2289;SDS011;1153;47.986;7.898;2022-12-18T03:34:21;25.63;;;10.90;;
2289;SDS011;1153;47.986;7.898;2022-12-18T03:36:48;23.20;;;11.30;;
2289;SDS011;1153;47.986;7.898;2022-12-18T03:39:13;21.00;;;10.53;;
2289;SDS011;1153;47.986;7.898;2022-12-18T03:41:47;23.60;;;12.10;;
2289;SDS011;1153;47.986;7.898;2022-12-18T03:44:14;25.73;;;9.40;;
2289;SDS011;1153;47.986;7.898;2022-12-18T03:47:05;21.70;;;11.23;;
2289;SDS011;1153;47.986;7.898;2022-12-18T03:49:36;27.67;;;10.67;;
2289;SDS011;1153;47.986;7.898;2022-12-18T03:52:11;30.27;;;10.33;;
2289;SDS011;1153;47.986;7.898;2022-12-18T03:54:38;24.93;;;10.47;;
2289;SDS011;1153;47.986;7.898;2022-12-18T03:57:06;22.70;;;10.80;;
2289;SDS011;1153;47.986;7.898;2022-12-18T03:59:33;34.30;;;13.97;;
2289;SDS011;1153;47.986;7.898;2022-12-18T04:01:59;20.13;;;11.50;;
2289;SDS011;1153;47.986;7.898;2022-12-18T04:04:26;22.93;;;12.67;;
2289;SDS011;1153;47.986;7.898;2022-12-18T04:06:52;20.40;;;10.10;;
2289;SDS011;1153;47.986;7.898;2022-12-18T04:09:18;22.27;;;13.37;;
2289;SDS011;1153;47.986;7.898;2022-12-18T04:11:44;22.47;;;10.50;;
2289;SDS011;1153;47.986;7.898;2022-12-18T04:14:10;17.53;;;10.50;;
2289;SDS011;1153;47.986;7.898;2022-12-18T04:16:36;21.00;;;8.57;;
2289;SDS011;1153;47.986;7.898;2022-12-18T04:19:01;18.77;;;7.53;;
2289;SDS011;1153;47.986;7.898;2022-12-18T04:21:26;18.57;;;9.47;;
2289;SDS011;1153;47.986;7.898;2022-12-18T04:23:51;21.00;;;8.63;;
2289;SDS011;1153;47.986;7.898;2022-12-18T04:26:17;21.80;;;10.77;;
2289;SDS011;1153;47.986;7.898;2022-12-18T04:28:42;15.40;;;7.70;;
2289;SDS011;1153;47.986;7.898;2022-12-18T04:31:07;17.23;;;8.40;;
2289;SDS011;1153;47.986;7.898;2022-12-18T04:33:32;14.43;;;9.60;;
2289;SDS011;1153;47.986;7.898;2022-12-18T04:35:57;16.50;;;8.23;;
2289;SDS011;1153;47.986;7.898;2022-12-18T04:38:23;23.07;;;9.77;;
2289;SDS011;1153;47.986;7.898;2022-12-18T04:40:48;15.07;;;8.17;;
2289;SDS011;1153;47.986;7.898;2022-12-18T04:43:13;14.60;;;8.37;;
2289;SDS011;1153;47.986;7.898;2022-12-18T04:45:38;18.13;;;8.47;;
2289;SDS011;1153;47.986;7.898;2022-12-18T04:48:04;15.80;;;8.37;;
2289;SDS011;1153;47.986;7.898;2022-12-18T04:50:29;19.40;;;8.23;;
2289;SDS011;1153;47.986;7.898;2022-12-18T04:52:54;18.30;;;7.30;;
2289;SDS011;1153;47.986;7.898;2022-12-18T04:55:20;17.67;;;7.20;;
2289;SDS011;1153;47.986;7.898;2022-12-18T04:57:45;15.07;;;10.20;;
2289;SDS011;1153;47.986;7.898;2022-12-18T05:00:11;14.53;;;7.30;;
2289;SDS011;1153;47.986;7.898;2022-12-18T05:02:36;21.03;;;9.07;;
2289;SDS011;1153;47.986;7.898;2022-12-18T05:05:01;23.43;;;9.60;;
2289;SDS011;1153;47.986;7.898;2022-12-18T05:07:27;25.27;;;9.60;;
2289;SDS011;1153;47.986;7.898;2022-12-18T05:09:52;23.10;;;9.13;;
2289;SDS011;1153;47.986;7.898;2022-12-18T05:12:17;17.03;;;6.80;;
2289;SDS011;1153;47.986;7.898;2022-12-18T05:14:42;13.77;;;7.67;;
2289;SDS011;1153;47.986;7.898;2022-12-18T05:17:07;13.37;;;6.93;;
2289;SDS011;1153;47.986;7.898;2022-12-18T05:19:33;18.10;;;7.60;;
2289;SDS011;1153;47.986;7.898;2022-12-18T05:21:58;13.00;;;7.83;;
2289;SDS011;1153;47.986;7.898;2022-12-18T05:24:23;15.00;;;7.60;;
2289;SDS011;1153;47.986;7.898;2022-12-18T05:26:48;18.80;;;7.23;;
2289;SDS011;1153;47.986;7.898;2022-12-18T05:29:14;11.67;;;6.63;;
2289;SDS011;1153;47.986;7.898;2022-12-18T05:31:39;14.03;;;6.53;;
2289;SDS011;1153;47.986;7.898;2022-12-18T05:34:04;11.53;;;6.20;;
2289;SDS011;1153;47.986;7.898;2022-12-18T05:36:30;11.23;;;6.50;;
2289;SDS011;1153;47.986;7.898;2022-12-18T05:38:55;11.40;;;6.20;;
2289;SDS011;1153;47.986;7.898;2022-12-18T05:41:20;12.10;;;6.37;;
2289;SDS011;1153;47.986;7.898;2022-12-18T05:43:45;10.67;;;5.80;;
2289;SDS011;1153;47.986;7.898;2022-12-18T05:46:13;14.97;;;5.50;;
2289;SDS011;1153;47.986;7.898;2022-12-18T05:48:38;15.00;;;6.43;;
2289;SDS011;1153;47.986;7.898;2022-12-18T05:51:06;17.10;;;7.13;;
2289;SDS011;1153;47.986;7.898;2022-12-18T05:53:32;10.87;;;6.27;;
2289;SDS011;1153;47.986;7.898;2022-12-18T05:55:59;15.80;;;8.17;;
2289;SDS011;1153;47.986;7.898;2022-12-18T05:58:24;12.30;;;6.33;;
2289;SDS011;1153;47.986;7.898;2022-12-18T06:00:50;12.90;;;6.47;;
2289;SDS011;1153;47.986;7.898;2022-12-18T06:03:15;11.20;;;6.63;;
2289;SDS011;1153;47.986;7.898;2022-12-18T06:05:41;10.53;;;6.70;;
2289;SDS011;1153;47.986;7.898;2022-12-18T06:08:07;6.33;;;4.37;;
2289;SDS011;1153;47.986;7.898;2022-12-18T06:10:32;8.77;;;4.97;;
2289;SDS011;1153;47.986;7.898;2022-12-18T06:12:58;13.93;;;5.87;;
2289;SDS011;1153;47.986;7.898;2022-12-18T06:15:23;10.00;;;4.90;;
2289;SDS011;1153;47.986;7.898;2022-12-18T06:17:48;11.10;;;5.07;;
2289;SDS011;1153;47.986;7.898;2022-12-18T06:20:13;10.67;;;4.00;;
2289;SDS011;1153;47.986;7.898;2022-12-18T06:22:39;10.57;;;4.40;;
2289;SDS011;1153;47.986;7.898;2022-12-18T06:25:04;51.70;;;21.80;;
2289;SDS011;1153;47.986;7.898;2022-12-18T06:27:30;24.27;;;12.17;;
2289;SDS011;1153;47.986;7.898;2022-12-18T06:29:56;11.80;;;6.87;;
2289;SDS011;1153;47.986;7.898;2022-12-18T06:32:21;11.10;;;6.57;;
2289;SDS011;1153;47.986;7.898;2022-12-18T06:34:46;18.63;;;6.10;;
2289;SDS011;1153;47.986;7.898;2022-12-18T06:37:11;19.23;;;6.37;;
2289;SDS011;1153;47.986;7.898;2022-12-18T06:39:36;13.97;;;5.90;;
2289;SDS011;1153;47.986;7.898;2022-12-18T06:42:02;11.97;;;5.70;;
2289;SDS011;1153;47.986;7.898;2022-12-18T06:44:28;10.03;;;5.33;;
2289;SDS011;1153;47.986;7.898;2022-12-18T06:46:53;8.43;;;4.40;;
2289;SDS011;1153;47.986;7.898;2022-12-18T06:49:18;16.37;;;5.97;;
2289;SDS011;1153;47.986;7.898;2022-12-18T06:51:43;7.97;;;4.47;;
2289;SDS011;1153;47.986;7.898;2022-12-18T06:54:08;8.17;;;4.13;;
2289;SDS011;1153;47.986;7.898;2022-12-18T06:56:34;8.40;;;5.10;;
2289;SDS011;1153;47.986;7.898;2022-12-18T06:58:59;6.50;;;3.87;;
2289;SDS011;1153;47.986;7.898;2022-12-18T07:01:24;5.67;;;5.17;;
2289;SDS011;1153;47.986;7.898;2022-12-18T07:03:53;5.23;;;3.73;;
2289;SDS011;1153;47.986;7.898;2022-12-18T07:06:20;6.10;;;4.30;;
2289;SDS011;1153;47.986;7.898;2022-12-18T07:08:45;8.03;;;4.47;;
2289;SDS011;1153;47.986;7.898;2022-12-18T07:11:11;9.57;;;4.80;;
2289;SDS011;1153;47.986;7.898;2022-12-18T07:13:36;9.30;;;4.93;;
2289;SDS011;1153;47.986;7.898;2022-12-18T07:16:05;6.30;;;5.53;;
2289;SDS011;1153;47.986;7.898;2022-12-18T07:18:30;17.60;;;7.77;;
2289;SDS011;1153;47.986;7.898;2022-12-18T07:20:56;21.37;;;6.20;;
2289;SDS011;1153;47.986;7.898;2022-12-18T07:23:21;10.17;;;5.43;;
2289;SDS011;1153;47.986;7.898;2022-12-18T07:25:46;13.77;;;6.43;;
2289;SDS011;1153;47.986;7.898;2022-12-18T07:28:11;8.57;;;5.13;;
2289;SDS011;1153;47.986;7.898;2022-12-18T07:30:37;15.13;;;5.87;;
2289;SDS011;1153;47.986;7.898;2022-12-18T07:33:03;13.60;;;6.07;;
2289;SDS011;1153;47.986;7.898;2022-12-18T07:35:28;14.03;;;5.27;;
2289;SDS011;1153;47.986;7.898;2022-12-18T07:37:53;8.83;;;5.37;;
2289;SDS011;1153;47.986;7.898;2022-12-18T07:40:18;4.90;;;4.37;;
2289;SDS011;1153;47.986;7.898;2022-12-18T07:42:44;8.97;;;4.77;;
2289;SDS011;1153;47.986;7.898;2022-12-18T07:45:09;7.07;;;3.30;;
2289;SDS011;1153;47.986;7.898;2022-12-18T07:47:34;5.93;;;5.33;;
2289;SDS011;1153;47.986;7.898;2022-12-18T07:50:01;9.80;;;5.60;;
2289;SDS011;1153;47.986;7.898;2022-12-18T07:52:26;7.20;;;5.30;;
2289;SDS011;1153;47.986;7.898;2022-12-18T07:54:51;10.87;;;6.13;;
2289;SDS011;1153;47.986;7.898;2022-12-18T07:57:16;14.60;;;4.77;;
2289;SDS011;1153;47.986;7.898;2022-12-18T07:59:42;7.83;;;4.70;;
2289;SDS011;1153;47.986;7.898;2022-12-18T08:02:07;7.23;;;4.70;;
2289;SDS011;1153;47.986;7.898;2022-12-18T08:04:36;20.23;;;8.67;;
2289;SDS011;1153;47.986;7.898;2022-12-18T08:07:01;24.67;;;9.00;;
2289;SDS011;1153;47.986;7.898;2022-12-18T08:09:26;17.03;;;7.67;;
2289;SDS011;1153;47.986;7.898;2022-12-18T08:11:51;15.77;;;5.87;;
2289;SDS011;1153;47.986;7.898;2022-12-18T08:14:17;8.53;;;5.00;;
2289;SDS011;1153;47.986;7.898;2022-12-18T08:16:42;10.27;;;6.10;;
2289;SDS011;1153;47.986;7.898;2022-12-18T08:19:10;11.67;;;5.37;;
2289;SDS011;1153;47.986;7.898;2022-12-18T08:21:35;18.43;;;6.87;;
2289;SDS011;1153;47.986;7.898;2022-12-18T08:24:01;16.47;;;8.20;;
2289;SDS011;1153;47.986;7.898;2022-12-18T08:26:28;15.03;;;6.90;;
2289;SDS011;1153;47.986;7.898;2022-12-18T08:28:54;10.67;;;6.80;;
2289;SDS011;1153;47.986;7.898;2022-12-18T08:31:19;18.20;;;8.23;;
2289;SDS011;1153;47.986;7.898;2022-12-18T08:33:44;20.57;;;10.47;;
2289;SDS011;1153;47.986;7.898;2022-12-18T08:36:10;25.93;;;8.80;;
2289;SDS011;1153;47.986;7.898;2022-12-18T08:38:35;24.70;;;9.50;;
2289;SDS011;1153;47.986;7.898;2022-12-18T08:41:01;30.60;;;12.53;;
2289;SDS011;1153;47.986;7.898;2022-12-18T08:43:27;28.97;;;13.93;;
2289;SDS011;1153;47.986;7.898;2022-12-18T08:46:11;25.40;;;12.27;;
2289;SDS011;1153;47.986;7.898;2022-12-18T08:48:36;19.67;;;9.70;;
2289;SDS011;1153;47.986;7.898;2022-12-18T08:51:02;27.40;;;12.23;;
2289;SDS011;1153;47.986;7.898;2022-12-18T08:53:27;16.47;;;9.00;;
2289;SDS011;1153;47.986;7.898;2022-12-18T08:55:53;16.73;;;8.50;;
2289;SDS011;1153;47.986;7.898;2022-12-18T08:58:18;25.67;;;9.53;;
2289;SDS011;1153;47.986;7.898;2022-12-18T09:00:43;23.40;;;10.70;;
2289;SDS011;1153;47.986;7.898;2022-12-18T09:03:15;12.87;;;8.60;;
2289;SDS011;1153;47.986;7.898;2022-12-18T09:05:41;17.63;;;9.33;;
2289;SDS011;1153;47.986;7.898;2022-12-18T09:08:06;22.07;;;11.27;;
2289;SDS011;1153;47.986;7.898;2022-12-18T09:10:31;20.03;;;11.10;;
2289;SDS011;1153;47.986;7.898;2022-12-18T09:12:57;29.37;;;12.13;;
2289;SDS011;1153;47.986;7.898;2022-12-18T09:15:22;20.83;;;11.03;;
2289;SDS011;1153;47.986;7.898;2022-12-18T09:17:47;28.13;;;13.17;;
2289;SDS011;1153;47.986;7.898;2022-12-18T09:20:13;34.40;;;14.50;;
2289;SDS011;1153;47.986;7.898;2022-12-18T09:22:38;31.13;;;16.00;;
2289;SDS011;1153;47.986;7.898;2022-12-18T09:25:06;37.07;;;16.50;;
2289;SDS011;1153;47.986;7.898;2022-12-18T09:27:35;37.37;;;17.63;;
2289;SDS011;1153;47.986;7.898;2022-12-18T09:30:00;37.43;;;15.83;;
2289;SDS011;1153;47.986;7.898;2022-12-18T09:32:25;24.40;;;11.93;;
2289;SDS011;1153;47.986;7.898;2022-12-18T09:34:51;17.27;;;10.00;;
2289;SDS011;1153;47.986;7.898;2022-12-18T09:37:16;21.63;;;10.93;;
2289;SDS011;1153;47.986;7.898;2022-12-18T09:39:41;11.83;;;8.30;;
2289;SDS011;1153;47.986;7.898;2022-12-18T09:42:06;16.63;;;9.17;;
2289;SDS011;1153;47.986;7.898;2022-12-18T09:44:41;17.73;;;11.50;;
2289;SDS011;1153;47.986;7.898;2022-12-18T09:47:15;20.97;;;11.60;;
2289;SDS011;1153;47.986;7.898;2022-12-18T09:49:42;16.10;;;10.00;;
2289;SDS011;1153;47.986;7.898;2022-12-18T09:52:16;17.87;;;10.17;;
2289;SDS011;1153;47.986;7.898;2022-12-18T09:54:42;15.40;;;8.53;;
2289;SDS011;1153;47.986;7.898;2022-12-18T09:57:22;16.73;;;10.50;;
2289;SDS011;1153;47.986;7.898;2022-12-18T09:59:50;10.30;;;7.77;;
2289;SDS011;1153;47.986;7.898;2022-12-18T10:02:19;17.73;;;9.40;;
2289;SDS011;1153;47.986;7.898;2022-12-18T10:04:48;20.93;;;10.37;;
2289;SDS011;1153;47.986;7.898;2022-12-18T10:07:21;11.83;;;9.77;;
2289;SDS011;1153;47.986;7.898;2022-12-18T10:10:03;12.80;;;9.30;;
2289;SDS011;1153;47.986;7.898;2022-12-18T10:12:37;12.27;;;8.87;;
2289;SDS011;1153;47.986;7.898;2022-12-18T10:23:04;14.83;;;9.40;;
2289;SDS011;1153;47.986;7.898;2022-12-18T10:27:59;9.90;;;8.10;;
2289;SDS011;1153;47.986;7.898;2022-12-18T10:30:25;11.63;;;8.83;;
2289;SDS011;1153;47.986;7.898;2022-12-18T10:32:51;15.40;;;9.50;;
2289;SDS011;1153;47.986;7.898;2022-12-18T10:35:24;19.80;;;10.30;;
2289;SDS011;1153;47.986;7.898;2022-12-18T10:38:03;15.70;;;10.00;;
2289;SDS011;1153;47.986;7.898;2022-12-18T10:40:29;12.10;;;8.97;;
2289;SDS011;1153;47.986;7.898;2022-12-18T10:43:13;17.30;;;10.60;;
2289;SDS011;1153;47.986;7.898;2022-12-18T10:45:39;15.87;;;10.80;;
2289;SDS011;1153;47.986;7.898;2022-12-18T10:48:05;16.70;;;11.67;;
2289;SDS011;1153;47.986;7.898;2022-12-18T10:50:42;11.07;;;8.00;;
2289;SDS011;1153;47.986;7.898;2022-12-18T10:53:13;9.17;;;7.97;;
2289;SDS011;1153;47.986;7.898;2022-12-18T10:55:39;9.37;;;8.40;;
2289;SDS011;1153;47.986;7.898;2022-12-18T11:00:40;7.57;;;6.77;;
2289;SDS011;1153;47.986;7.898;2022-12-18T11:03:14;11.53;;;7.47;;
2289;SDS011;1153;47.986;7.898;2022-12-18T11:05:56;9.10;;;8.30;;
2289;SDS011;1153;47.986;7.898;2022-12-18T11:08:25;10.93;;;7.73;;
2289;SDS011;1153;47.986;7.898;2022-12-18T11:10:51;9.83;;;8.17;;
2289;SDS011;1153;47.986;7.898;2022-12-18T11:13:26;10.47;;;9.30;;
2289;SDS011;1153;47.986;7.898;2022-12-18T11:15:52;14.53;;;8.77;;
2289;SDS011;1153;47.986;7.898;2022-12-18T11:18:30;8.70;;;7.90;;
2289;SDS011;1153;47.986;7.898;2022-12-18T11:21:04;9.07;;;7.70;;
2289;SDS011;1153;47.986;7.898;2022-12-18T11:23:30;18.67;;;9.10;;
2289;SDS011;1153;47.986;7.898;2022-12-18T11:25:57;11.63;;;8.90;;
2289;SDS011;1153;47.986;7.898;2022-12-18T11:34:05;12.63;;;9.83;;
2289;SDS011;1153;47.986;7.898;2022-12-18T11:36:36;18.57;;;11.87;;
2289;SDS011;1153;47.986;7.898;2022-12-18T11:39:05;16.00;;;11.43;;
2289;SDS011;1153;47.986;7.898;2022-12-18T11:53:02;31.33;;;15.53;;
2289;SDS011;1153;47.986;7.898;2022-12-18T11:58:08;31.37;;;14.53;;
2289;SDS011;1153;47.986;7.898;2022-12-18T12:00:40;42.07;;;19.57;;
2289;SDS011;1153;47.986;7.898;2022-12-18T12:08:23;44.90;;;19.90;;
2289;SDS011;1153;47.986;7.898;2022-12-18T12:16:07;38.83;;;19.97;;
2289;SDS011;1153;47.986;7.898;2022-12-18T12:18:42;39.30;;;20.63;;
2289;SDS011;1153;47.986;7.898;2022-12-18T12:26:23;43.10;;;18.90;;
2289;SDS011;1153;47.986;7.898;2022-12-18T12:39:08;43.73;;;20.67;;
2289;SDS011;1153;47.986;7.898;2022-12-18T12:41:35;48.33;;;21.90;;
2289;SDS011;1153;47.986;7.898;2022-12-18T12:44:31;47.50;;;22.67;;
2289;SDS011;1153;47.986;7.898;2022-12-18T12:47:00;45.43;;;21.20;;
2289;SDS011;1153;47.986;7.898;2022-12-18T12:49:27;43.23;;;20.43;;
2289;SDS011;1153;47.986;7.898;2022-12-18T12:51:58;44.30;;;22.43;;
2289;SDS011;1153;47.986;7.898;2022-12-18T12:54:25;42.13;;;20.60;;
2289;SDS011;1153;47.986;7.898;2022-12-18T12:56:53;38.87;;;19.50;;
2289;SDS011;1153;47.986;7.898;2022-12-18T13:09:34;51.07;;;21.83;;
2289;SDS011;1153;47.986;7.898;2022-12-18T13:12:19;45.50;;;20.20;;
2289;SDS011;1153;47.986;7.898;2022-12-18T13:15:21;48.80;;;22.70;;
2289;SDS011;1153;47.986;7.898;2022-12-18T13:17:47;42.37;;;20.97;;
2289;SDS011;1153;47.986;7.898;2022-12-18T13:20:13;37.90;;;20.50;;
2289;SDS011;1153;47.986;7.898;2022-12-18T13:22:46;42.80;;;20.50;;
2289;SDS011;1153;47.986;7.898;2022-12-18T13:28:16;67.60;;;23.20;;
2289;SDS011;1153;47.986;7.898;2022-12-18T13:30:42;45.93;;;22.37;;
2289;SDS011;1153;47.986;7.898;2022-12-18T13:36:00;47.83;;;24.10;;
2289;SDS011;1153;47.986;7.898;2022-12-18T13:40:57;47.47;;;24.53;;
2289;SDS011;1153;47.986;7.898;2022-12-18T13:46:01;48.60;;;25.30;;
2289;SDS011;1153;47.986;7.898;2022-12-18T13:48:28;39.20;;;23.33;;
2289;SDS011;1153;47.986;7.898;2022-12-18T13:51:01;45.57;;;20.57;;
2289;SDS011;1153;47.986;7.898;2022-12-18T13:53:48;40.53;;;21.30;;
2289;SDS011;1153;47.986;7.898;2022-12-18T13:56:24;45.50;;;21.13;;
2289;SDS011;1153;47.986;7.898;2022-12-18T14:01:33;40.90;;;22.23;;
2289;SDS011;1153;47.986;7.898;2022-12-18T14:04:08;44.60;;;20.70;;
2289;SDS011;1153;47.986;7.898;2022-12-18T14:06:34;41.97;;;20.10;;
2289;SDS011;1153;47.986;7.898;2022-12-18T14:08:59;48.17;;;20.00;;
2289;SDS011;1153;47.986;7.898;2022-12-18T14:11:24;28.80;;;16.90;;
2289;SDS011;1153;47.986;7.898;2022-12-18T14:13:50;43.00;;;21.07;;
2289;SDS011;1153;47.986;7.898;2022-12-18T14:16:15;35.57;;;19.67;;
2289;SDS011;1153;47.986;7.898;2022-12-18T14:18:43;37.20;;;20.07;;
2289;SDS011;1153;47.986;7.898;2022-12-18T14:21:17;40.57;;;18.93;;
2289;SDS011;1153;47.986;7.898;2022-12-18T14:23:43;32.17;;;17.73;;
2289;SDS011;1153;47.986;7.898;2022-12-18T14:26:25;34.90;;;18.87;;
2289;SDS011;1153;47.986;7.898;2022-12-18T14:28:52;36.20;;;17.97;;
2289;SDS011;1153;47.986;7.898;2022-12-18T14:31:19;32.33;;;16.57;;
2289;SDS011;1153;47.986;7.898;2022-12-18T14:33:45;40.43;;;18.97;;
2289;SDS011;1153;47.986;7.898;2022-12-18T14:36:17;40.27;;;19.50;;
2289;SDS011;1153;47.986;7.898;2022-12-18T14:38:42;39.27;;;18.97;;
2289;SDS011;1153;47.986;7.898;2022-12-18T14:41:12;30.13;;;17.97;;
2289;SDS011;1153;47.986;7.898;2022-12-18T14:43:38;36.80;;;19.70;;
2289;SDS011;1153;47.986;7.898;2022-12-18T14:46:48;30.17;;;16.40;;
2289;SDS011;1153;47.986;7.898;2022-12-18T14:48:49;35.83;;;16.93;;
2289;SDS011;1153;47.986;7.898;2022-12-18T14:51:21;39.07;;;17.00;;
2289;SDS011;1153;47.986;7.898;2022-12-18T14:53:48;41.70;;;20.13;;
2289;SDS011;1153;47.986;7.898;2022-12-18T14:56:18;40.97;;;19.27;;
2289;SDS011;1153;47.986;7.898;2022-12-18T14:58:45;37.17;;;20.10;;
2289;SDS011;1153;47.986;7.898;2022-12-18T15:01:17;43.90;;;21.73;;
2289;SDS011;1153;47.986;7.898;2022-12-18T15:03:43;40.37;;;17.83;;
2289;SDS011;1153;47.986;7.898;2022-12-18T15:06:15;40.03;;;19.00;;
2289;SDS011;1153;47.986;7.898;2022-12-18T15:08:40;30.20;;;15.97;;
2289;SDS011;1153;47.986;7.898;2022-12-18T15:11:23;38.07;;;18.10;;
2289;SDS011;1153;47.986;7.898;2022-12-18T15:13:49;31.23;;;17.00;;
2289;SDS011;1153;47.986;7.898;2022-12-18T15:16:14;29.47;;;15.50;;
2289;SDS011;1153;47.986;7.898;2022-12-18T15:18:41;37.47;;;18.20;;
2289;SDS011;1153;47.986;7.898;2022-12-18T15:21:07;30.93;;;16.90;;
2289;SDS011;1153;47.986;7.898;2022-12-18T15:23:35;32.50;;;16.90;;
2289;SDS011;1153;47.986;7.898;2022-12-18T15:26:02;36.30;;;17.03;;
2289;SDS011;1153;47.986;7.898;2022-12-18T15:33:30;31.13;;;17.83;;
2289;SDS011;1153;47.986;7.898;2022-12-18T15:36:00;42.83;;;19.90;;
2289;SDS011;1153;47.986;7.898;2022-12-18T15:38:25;38.90;;;18.47;;
2289;SDS011;1153;47.986;7.898;2022-12-18T15:40:51;34.73;;;17.37;;
2289;SDS011;1153;47.986;7.898;2022-12-18T15:43:21;37.10;;;17.40;;
2289;SDS011;1153;47.986;7.898;2022-12-18T15:46:00;33.43;;;17.50;;
2289;SDS011;1153;47.986;7.898;2022-12-18T15:48:25;32.90;;;19.10;;
2289;SDS011;1153;47.986;7.898;2022-12-18T15:50:51;34.77;;;18.80;;
2289;SDS011;1153;47.986;7.898;2022-12-18T15:53:17;33.63;;;18.20;;
2289;SDS011;1153;47.986;7.898;2022-12-18T15:55:43;31.70;;;17.93;;
2289;SDS011;1153;47.986;7.898;2022-12-18T15:58:26;29.03;;;16.30;;
2289;SDS011;1153;47.986;7.898;2022-12-18T16:00:51;33.23;;;18.17;;
2289;SDS011;1153;47.986;7.898;2022-12-18T16:03:17;32.30;;;16.17;;
2289;SDS011;1153;47.986;7.898;2022-12-18T16:05:42;33.10;;;18.10;;
2289;SDS011;1153;47.986;7.898;2022-12-18T16:08:07;39.30;;;19.27;;
2289;SDS011;1153;47.986;7.898;2022-12-18T16:10:32;48.03;;;22.20;;
2289;SDS011;1153;47.986;7.898;2022-12-18T16:12:57;34.00;;;19.30;;
2289;SDS011;1153;47.986;7.898;2022-12-18T16:15:23;38.90;;;20.80;;
2289;SDS011;1153;47.986;7.898;2022-12-18T16:17:48;38.80;;;21.60;;
2289;SDS011;1153;47.986;7.898;2022-12-18T16:20:14;34.20;;;20.77;;
2289;SDS011;1153;47.986;7.898;2022-12-18T16:22:40;35.03;;;21.20;;
2289;SDS011;1153;47.986;7.898;2022-12-18T16:25:05;34.90;;;20.83;;
2289;SDS011;1153;47.986;7.898;2022-12-18T16:27:31;35.87;;;22.30;;
2289;SDS011;1153;47.986;7.898;2022-12-18T16:29:56;37.47;;;19.00;;
2289;SDS011;1153;47.986;7.898;2022-12-18T16:32:21;39.57;;;19.80;;
2289;SDS011;1153;47.986;7.898;2022-12-18T16:34:47;38.77;;;20.37;;
2289;SDS011;1153;47.986;7.898;2022-12-18T16:37:13;33.70;;;19.50;;
2289;SDS011;1153;47.986;7.898;2022-12-18T16:39:38;36.63;;;20.83;;
2289;SDS011;1153;47.986;7.898;2022-12-18T16:42:05;41.60;;;21.17;;